createdAt,value
2023-04-01T00:04:03.130Z,98.55
2023-04-01T00:09:05.070Z,99.54
2023-04-01T00:14:08.697Z,98.00
2023-04-01T00:19:10.385Z,97.04
2023-04-01T00:24:12.267Z,96.13
2023-04-01T00:29:13.975Z,96.99
2023-04-01T00:34:15.672Z,97.94
2023-04-01T00:39:17.681Z,98.89
2023-04-01T00:44:23.923Z,100.00
2023-04-01T00:49:33.772Z,100.00
2023-04-01T00:54:36.866Z,100.00
2023-04-01T00:59:43.446Z,100.00
2023-04-01T01:04:45.309Z,99.84
2023-04-01T01:09:56.787Z,98.46
2023-04-01T01:15:13.658Z,97.36
2023-04-01T01:20:25.508Z,96.74
2023-04-01T01:25:31.773Z,97.38
2023-04-01T01:30:44.119Z,98.38
2023-04-01T01:35:54.514Z,98.62
2023-04-01T01:40:58.878Z,97.13
2023-04-01T01:46:06.610Z,97.88
2023-04-01T01:51:09.237Z,96.99
2023-04-01T01:56:13.618Z,97.77
2023-04-01T02:01:21.485Z,97.60
2023-04-01T02:06:26.881Z,97.05
2023-04-01T02:11:33.462Z,97.00
2023-04-01T02:16:47.946Z,96.68
2023-04-01T02:21:57.986Z,96.98
2023-04-01T02:26:59.816Z,96.25
2023-04-01T02:32:04.107Z,95.53
2023-04-01T02:37:05.784Z,95.67
2023-04-01T02:42:07.447Z,95.36
2023-04-01T02:47:09.180Z,95.50
2023-04-01T02:52:11.022Z,95.55
2023-04-01T02:57:12.756Z,94.15
2023-04-01T03:02:15.514Z,96.06
2023-04-01T03:07:17.422Z,94.46
2023-04-01T03:12:19.219Z,93.74
2023-04-01T03:17:25.869Z,93.57
2023-04-01T03:22:28.839Z,93.75
2023-04-01T03:27:30.966Z,93.69
2023-04-01T03:32:32.942Z,94.59
2023-04-01T03:37:34.772Z,94.79
2023-04-01T03:42:37.076Z,94.23
2023-04-01T03:47:39.539Z,94.98
2023-04-01T03:52:41.348Z,93.73
2023-04-01T03:57:43.063Z,92.68
2023-04-01T04:02:52.499Z,93.87
2023-04-01T04:08:00.576Z,91.26
2023-04-01T04:13:02.456Z,91.92
2023-04-01T04:18:06.403Z,92.86
2023-04-01T04:23:08.100Z,92.08
2023-04-01T04:28:10.658Z,90.13
2023-04-01T04:33:12.577Z,90.31
2023-04-01T04:38:14.385Z,90.24
2023-04-01T04:43:18.395Z,88.33
2023-04-01T04:48:21.352Z,87.89
2023-04-01T04:53:24.247Z,88.94
2023-04-01T04:58:26.047Z,88.46
2023-04-01T05:03:28.361Z,88.76
2023-04-01T05:08:30.679Z,88.96
2023-04-01T05:13:32.734Z,89.24
2023-04-01T05:18:35.101Z,90.29
2023-04-01T05:23:37.151Z,90.08
2023-04-01T05:28:42.501Z,89.22
2023-04-01T05:33:44.459Z,90.70
2023-04-01T05:38:47.464Z,90.05
2023-04-01T05:43:49.278Z,91.60
2023-04-01T05:49:20.452Z,91.48
2023-04-01T05:54:23.378Z,93.47
2023-04-01T05:59:25.622Z,95.43
2023-04-01T06:04:33.916Z,95.20
2023-04-01T06:09:36.182Z,91.87
2023-04-01T06:14:47.918Z,90.88
2023-04-01T06:19:58.431Z,89.67
2023-04-01T06:25:12.312Z,88.88
2023-04-01T06:30:33.884Z,86.16
2023-04-01T06:35:46.496Z,85.23
2023-04-01T06:41:28.421Z,83.11
2023-04-01T06:46:36.085Z,83.73
2023-04-01T06:52:47.543Z,81.81
2023-04-01T06:58:20.949Z,82.44
2023-04-01T07:03:37.339Z,80.77
2023-04-01T07:08:45.902Z,79.61
2023-04-01T07:13:57.140Z,79.78
2023-04-01T07:19:11.143Z,81.06
2023-04-01T07:24:35.165Z,79.26
2023-04-01T07:29:41.106Z,78.72
2023-04-01T07:34:53.152Z,77.15
2023-04-01T07:40:22.495Z,78.75
2023-04-01T07:46:02.838Z,79.70
2023-04-01T07:51:29.954Z,78.32
2023-04-01T07:56:58.379Z,78.83
2023-04-01T08:02:35.760Z,78.02
2023-04-01T08:07:56.576Z,77.41
2023-04-01T08:13:25.474Z,77.84
2023-04-01T08:18:54.771Z,72.84
2023-04-01T08:24:05.134Z,70.39
2023-04-01T08:29:16.474Z,70.78
2023-04-01T08:34:35.168Z,70.96
2023-04-01T08:39:43.682Z,72.49
2023-04-01T08:45:14.743Z,71.32
2023-04-01T08:50:41.014Z,72.54
2023-04-01T08:56:32.524Z,71.99
2023-04-01T09:01:59.549Z,72.59
2023-04-01T09:07:43.303Z,71.27
2023-04-01T09:12:59.113Z,72.49
2023-04-01T09:18:42.104Z,70.94
2023-04-01T09:23:49.067Z,69.84
2023-04-01T09:29:19.524Z,69.77
2023-04-01T09:35:06.222Z,69.05
2023-04-01T09:40:45.734Z,69.33
2023-04-01T09:46:10.978Z,69.08
2023-04-01T09:51:21.813Z,68.40
2023-04-01T09:56:44.979Z,69.55
2023-04-01T10:02:23.767Z,66.78
2023-04-01T10:07:40.593Z,68.70
2023-04-01T10:13:11.845Z,67.35
2023-04-01T10:18:57.825Z,67.73
2023-04-01T10:24:27.666Z,69.02
2023-04-01T10:29:38.931Z,68.82
2023-04-01T10:34:55.840Z,69.13
2023-04-01T10:40:16.756Z,69.84
2023-04-01T10:45:44.064Z,71.53
2023-04-01T10:50:49.136Z,69.73
2023-04-01T10:56:31.260Z,68.81
2023-04-01T11:02:36.552Z,70.19
2023-04-01T11:08:02.756Z,70.91
2023-04-01T11:13:24.172Z,70.14
2023-04-01T11:18:44.270Z,69.27
2023-04-01T11:23:54.999Z,68.18
2023-04-01T11:29:23.741Z,71.12
2023-04-01T11:34:45.703Z,71.54
2023-04-01T11:40:12.379Z,77.50
2023-04-01T11:46:12.266Z,83.64
2023-04-01T11:51:14.307Z,80.45
2023-04-01T11:56:32.059Z,79.29
2023-04-01T12:01:57.005Z,77.60
2023-04-01T12:07:17.333Z,76.40
2023-04-01T12:12:24.841Z,74.76
2023-04-01T12:17:47.985Z,71.51
2023-04-01T12:23:04.508Z,72.74
2023-04-01T12:28:21.262Z,73.59
2023-04-01T12:33:25.978Z,72.05
2023-04-01T12:38:33.731Z,71.44
2023-04-01T12:43:53.494Z,73.47
2023-04-01T12:48:55.102Z,72.05
2023-04-01T12:54:05.641Z,69.78
2023-04-01T12:59:36.722Z,67.48
2023-04-01T13:04:50.763Z,63.34
2023-04-01T13:10:03.877Z,61.99
2023-04-01T13:15:24.357Z,62.40
2023-04-01T13:20:58.826Z,61.00
2023-04-01T13:26:42.246Z,65.74
2023-04-01T13:32:05.705Z,70.82
2023-04-01T13:37:19.206Z,70.77
2023-04-01T13:42:46.708Z,59.50
2023-04-01T13:48:14.226Z,61.08
2023-04-01T13:53:28.439Z,59.51
2023-04-01T13:58:58.893Z,60.45
2023-04-01T14:04:09.453Z,62.85
2023-04-01T14:09:59.624Z,64.71
2023-04-01T14:15:35.665Z,63.75
2023-04-01T14:21:09.010Z,63.47
2023-04-01T14:26:13.962Z,65.87
2023-04-01T14:31:18.431Z,64.15
2023-04-01T14:36:33.582Z,65.25
2023-04-01T14:42:03.910Z,64.64
2023-04-01T14:47:33.524Z,62.10
2023-04-01T14:52:41.391Z,62.03
2023-04-01T14:57:43.532Z,61.58
2023-04-01T15:02:54.136Z,63.96
2023-04-01T15:08:31.382Z,65.01
2023-04-01T15:14:00.169Z,65.38
2023-04-01T15:19:20.498Z,65.51
2023-04-01T15:24:36.004Z,66.91
2023-04-01T15:29:44.558Z,70.19
2023-04-01T15:35:14.035Z,70.62
2023-04-01T15:40:27.722Z,70.50
2023-04-01T15:45:52.610Z,72.26
2023-04-01T15:51:12.766Z,71.80
2023-04-01T15:56:24.283Z,67.30
2023-04-01T16:01:35.293Z,67.26
2023-04-01T16:06:44.240Z,68.73
2023-04-01T16:12:08.355Z,69.66
2023-04-01T16:17:46.955Z,69.82
2023-04-01T16:23:01.300Z,70.31
2023-04-01T16:28:20.500Z,71.32
2023-04-01T16:33:44.179Z,71.57
2023-04-01T16:38:57.523Z,72.17
2023-04-01T16:44:13.807Z,73.37
2023-04-01T16:49:29.965Z,75.57
2023-04-01T16:54:41.937Z,73.89
2023-04-01T17:00:12.672Z,74.77
2023-04-01T17:05:15.119Z,77.54
2023-04-01T17:10:44.574Z,82.73
2023-04-01T17:15:51.869Z,86.24
2023-04-01T17:21:08.918Z,87.39
2023-04-01T17:26:10.660Z,92.39
2023-04-01T17:31:27.568Z,92.16
2023-04-01T17:36:41.629Z,94.88
2023-04-01T17:41:54.832Z,94.74
2023-04-01T17:47:21.170Z,95.13
2023-04-01T17:52:41.016Z,95.25
2023-04-01T17:57:53.551Z,95.54
2023-04-01T18:03:02.460Z,97.08
2023-04-01T18:08:13.601Z,97.83
2023-04-01T18:13:36.456Z,98.27
2023-04-01T18:18:54.273Z,99.71
2023-04-01T18:24:14.515Z,100.00
2023-04-01T18:29:29.220Z,100.00
2023-04-01T18:35:11.860Z,100.00
2023-04-01T18:40:16.825Z,100.00
2023-04-01T18:45:49.022Z,100.00
2023-04-01T18:51:04.045Z,100.00
2023-04-01T18:56:16.666Z,100.00
2023-04-01T19:01:34.732Z,100.00
2023-04-01T19:06:58.405Z,100.00
2023-04-01T19:12:25.471Z,100.00
2023-04-01T19:18:02.319Z,100.00
2023-04-01T19:23:22.571Z,100.00
2023-04-01T19:28:56.564Z,100.00
2023-04-01T19:34:15.348Z,100.00
2023-04-01T19:39:38.307Z,100.00
2023-04-01T19:45:05.026Z,100.00
2023-04-01T19:50:22.577Z,100.00
2023-04-01T19:55:48.858Z,100.00
2023-04-01T20:01:01.378Z,100.00
2023-04-01T20:06:13.242Z,100.00
2023-04-01T20:11:22.032Z,100.00
2023-04-01T20:16:47.714Z,100.00
2023-04-01T20:21:51.514Z,100.00
2023-04-01T20:27:22.399Z,100.00
2023-04-01T20:32:51.984Z,100.00
2023-04-01T20:38:21.141Z,100.00
2023-04-01T20:43:36.975Z,100.00
2023-04-01T20:48:44.649Z,100.00
2023-04-01T20:54:18.111Z,100.00
2023-04-01T20:59:50.673Z,100.00
2023-04-01T21:05:04.521Z,100.00
2023-04-01T21:10:21.877Z,100.00
2023-04-01T21:15:45.668Z,100.00
2023-04-01T21:21:09.084Z,100.00
2023-04-01T21:26:29.422Z,100.00
2023-04-01T21:31:46.519Z,100.00
2023-04-01T21:37:25.293Z,100.00
2023-04-01T21:42:53.206Z,100.00
2023-04-01T21:48:35.962Z,100.00
2023-04-01T21:54:02.166Z,100.00
2023-04-01T21:59:17.686Z,100.00
2023-04-01T22:04:43.109Z,100.00
2023-04-01T22:09:44.702Z,100.00
2023-04-01T22:15:18.361Z,100.00
2023-04-01T22:20:39.450Z,100.00
2023-04-01T22:25:41.164Z,100.00
2023-04-01T22:30:53.338Z,100.00
2023-04-01T22:36:02.189Z,100.00
2023-04-01T22:41:28.658Z,100.00
2023-04-01T22:46:44.915Z,100.00
2023-04-01T22:52:15.850Z,100.00
2023-04-01T22:57:54.725Z,100.00
2023-04-01T23:03:09.959Z,100.00
2023-04-01T23:08:30.152Z,100.00
2023-04-01T23:13:49.377Z,100.00
2023-04-01T23:19:04.609Z,100.00
2023-04-01T23:24:30.933Z,100.00
2023-04-01T23:29:37.006Z,100.00
2023-04-01T23:34:38.788Z,100.00
2023-04-01T23:39:44.809Z,100.00
2023-04-01T23:44:47.901Z,100.00
2023-04-01T23:49:54.326Z,100.00
2023-04-01T23:55:04.244Z,100.00
